Time,TemperatureF,DewpointF,PressureIn,WindDirection,WindDirectionDegrees,WindSpeedMPH,WindSpeedGustMPH,Humidity,HourlyPrecipIn,Conditions,Clouds,dailyrainin,SoftwareType,DateUTC
2013-05-23 13:11:00,71.0,63.0,29.92,SW,222,4.0,13.0,75,0.00,,,0.00,,2013-05-23 17:11:00,
2013-05-23 13:23:00,71.0,63.0,29.92,SW,222,4.0,13.0,75,0.00,,,0.00,,2013-05-23 17:23:00,
2013-05-23 13:33:00,71.0,62.0,29.92,WSW,244,2.0,15.0,73,0.00,,,0.00,,2013-05-23 17:33:00,
2013-05-23 13:43:00,71.0,62.0,29.92,WSW,244,2.0,15.0,73,0.00,,,0.00,,2013-05-23 17:43:00,
2013-05-23 13:53:00,71.0,61.0,29.91,WSW,244,5.0,11.0,70,0.00,,,0.00,,2013-05-23 17:53:00,
2013-05-23 14:01:00,71.0,62.0,29.91,WSW,242,4.0,6.0,74,0.00,,,0.00,,2013-05-23 18:01:00,
2013-05-23 14:11:00,71.0,62.0,29.91,WSW,242,4.0,6.0,74,0.00,,,0.00,,2013-05-23 18:11:00,
2013-05-23 14:22:00,71.0,62.0,29.91,WSW,240,5.0,10.0,73,0.00,,,0.00,,2013-05-23 18:22:00,
2013-05-23 14:32:00,72.0,62.0,29.89,SW,224,3.0,7.0,72,0.00,,,0.00,,2013-05-23 18:32:00,
2013-05-23 14:42:00,72.0,62.0,29.89,SW,224,3.0,7.0,72,0.00,,,0.00,,2013-05-23 18:42:00,
2013-05-23 14:52:00,73.0,61.0,29.89,SW,226,3.0,6.0,67,0.00,,,0.00,,2013-05-23 18:52:00,
2013-05-23 15:01:00,73.0,61.0,29.88,WSW,241,10.0,13.0,65,0.00,,,0.00,,2013-05-23 19:01:00,
2013-05-23 15:11:00,73.0,61.0,29.88,WSW,241,10.0,13.0,65,0.00,,,0.00,,2013-05-23 19:11:00,
2013-05-23 15:21:00,74.0,61.0,29.88,SSW,203,5.0,14.0,65,0.00,,,0.00,,2013-05-23 19:21:00,
2013-05-23 15:32:00,74.0,62.0,29.88,SSW,210,7.0,11.0,66,0.00,,,0.00,,2013-05-23 19:32:00,
2013-05-23 15:42:00,74.0,62.0,29.87,SW,235,8.0,17.0,66,0.00,,,0.00,,2013-05-23 19:42:00,
2013-05-23 15:52:00,74.0,62.0,29.87,SW,235,8.0,17.0,66,0.00,,,0.00,,2013-05-23 19:52:00,
2013-05-23 16:02:00,74.0,61.0,29.87,SW,224,10.0,19.0,64,0.00,,,0.00,,2013-05-23 20:02:00,
2013-05-23 16:11:00,74.0,61.0,29.87,SW,224,10.0,19.0,64,0.00,,,0.00,,2013-05-23 20:11:00,
2013-05-23 16:21:00,75.0,62.0,29.86,SW,217,8.0,15.0,63,0.00,,,0.00,,2013-05-23 20:21:00,
2013-05-23 16:32:00,75.0,62.0,29.85,SW,220,5.0,13.0,65,0.00,,,0.00,,2013-05-23 20:32:00,
2013-05-23 16:42:00,75.0,62.0,29.85,SW,220,5.0,13.0,65,0.00,,,0.00,,2013-05-23 20:42:00,
2013-05-23 16:52:00,75.0,61.0,29.85,SW,217,13.0,20.0,61,0.00,,,0.00,,2013-05-23 20:52:00,
2013-05-23 17:01:00,75.0,62.0,29.85,SW,224,6.0,20.0,63,0.00,,,0.00,,2013-05-23 21:01:00,
2013-05-23 17:11:00,75.0,62.0,29.85,SW,224,6.0,20.0,63,0.00,,,0.00,,2013-05-23 21:11:00,
2013-05-23 17:22:00,74.0,61.0,29.85,SW,230,9.0,16.0,63,0.00,,,0.00,,2013-05-23 21:22:00,
2013-05-23 17:32:00,73.0,60.0,29.85,WSW,254,7.0,17.0,63,0.00,,,0.00,,2013-05-23 21:32:00,
2013-05-23 17:43:00,73.0,60.0,29.85,WSW,254,7.0,17.0,63,0.00,,,0.00,,2013-05-23 21:43:00,
2013-05-23 17:53:00,73.0,60.0,29.85,West,266,8.0,11.0,64,0.00,,,0.00,,2013-05-23 21:53:00,
2013-05-23 18:03:00,72.0,61.0,29.85,WNW,284,4.0,11.0,69,0.00,,,0.00,,2013-05-23 22:03:00,
2013-05-23 18:12:00,72.0,61.0,29.85,WNW,284,4.0,11.0,69,0.00,,,0.00,,2013-05-23 22:12:00,
2013-05-23 19:01:00,64.0,60.0,29.88,South,185,5.0,11.0,88,0.00,,,0.00,,2013-05-23 23:01:00,
2013-05-23 19:11:00,65.0,61.0,29.87,South,185,6.0,14.0,86,0.00,,,0.00,,2013-05-23 23:11:00,
2013-05-23 19:21:00,65.0,61.0,29.87,South,185,6.0,14.0,86,0.00,,,0.00,,2013-05-23 23:21:00,
2013-05-23 19:32:00,66.0,61.0,29.87,South,189,7.0,7.0,84,0.00,,,0.00,,2013-05-23 23:32:00,
2013-05-23 19:42:00,66.0,61.0,29.87,South,189,7.0,7.0,84,0.00,,,0.00,,2013-05-23 23:42:00,